sensor_id;sensor_type;location;lat;lon;timestamp;P1;durP1;ratioP1;P2;durP2;ratioP2
76131;SDS011;64877;50.994;13.650;2024-01-30T00:01:09;18.15;;;8.70;;
76131;SDS011;64877;50.994;13.650;2024-01-30T00:03:34;19.00;;;10.15;;
76131;SDS011;64877;50.994;13.650;2024-01-30T00:06:03;17.45;;;8.98;;
76131;SDS011;64877;50.994;13.650;2024-01-30T00:08:28;19.48;;;8.57;;
76131;SDS011;64877;50.994;13.650;2024-01-30T00:10:54;23.58;;;10.68;;
76131;SDS011;64877;50.994;13.650;2024-01-30T00:13:20;19.17;;;8.88;;
76131;SDS011;64877;50.994;13.650;2024-01-30T00:15:45;15.52;;;8.45;;
76131;SDS011;64877;50.994;13.650;2024-01-30T00:18:11;19.13;;;10.10;;
76131;SDS011;64877;50.994;13.650;2024-01-30T00:20:36;19.50;;;9.70;;
76131;SDS011;64877;50.994;13.650;2024-01-30T00:23:02;19.98;;;9.07;;
76131;SDS011;64877;50.994;13.650;2024-01-30T00:25:27;20.63;;;9.77;;
76131;SDS011;64877;50.994;13.650;2024-01-30T00:27:53;19.75;;;10.45;;
76131;SDS011;64877;50.994;13.650;2024-01-30T00:30:18;19.65;;;10.15;;
76131;SDS011;64877;50.994;13.650;2024-01-30T00:32:45;17.92;;;9.27;;
76131;SDS011;64877;50.994;13.650;2024-01-30T00:35:10;21.63;;;9.73;;
76131;SDS011;64877;50.994;13.650;2024-01-30T00:37:36;17.02;;;9.93;;
76131;SDS011;64877;50.994;13.650;2024-01-30T00:40:01;17.73;;;8.85;;
76131;SDS011;64877;50.994;13.650;2024-01-30T00:42:27;18.48;;;9.50;;
76131;SDS011;64877;50.994;13.650;2024-01-30T00:44:52;20.75;;;9.88;;
76131;SDS011;64877;50.994;13.650;2024-01-30T00:47:18;18.17;;;9.23;;
76131;SDS011;64877;50.994;13.650;2024-01-30T00:49:43;18.38;;;9.73;;
76131;SDS011;64877;50.994;13.650;2024-01-30T00:52:09;20.95;;;10.57;;
76131;SDS011;64877;50.994;13.650;2024-01-30T00:54:34;19.08;;;9.57;;
76131;SDS011;64877;50.994;13.650;2024-01-30T00:56:59;19.50;;;9.20;;
76131;SDS011;64877;50.994;13.650;2024-01-30T00:59:25;18.98;;;8.40;;
76131;SDS011;64877;50.994;13.650;2024-01-30T01:01:50;17.80;;;8.43;;
76131;SDS011;64877;50.994;13.650;2024-01-30T01:04:16;17.60;;;8.68;;
76131;SDS011;64877;50.994;13.650;2024-01-30T01:06:42;20.23;;;10.55;;
76131;SDS011;64877;50.994;13.650;2024-01-30T01:09:10;18.55;;;9.98;;
76131;SDS011;64877;50.994;13.650;2024-01-30T01:11:36;17.95;;;8.68;;
76131;SDS011;64877;50.994;13.650;2024-01-30T01:14:03;18.35;;;9.38;;
76131;SDS011;64877;50.994;13.650;2024-01-30T01:16:28;19.88;;;9.15;;
76131;SDS011;64877;50.994;13.650;2024-01-30T01:18:54;19.02;;;9.07;;
76131;SDS011;64877;50.994;13.650;2024-01-30T01:21:19;19.02;;;9.15;;
76131;SDS011;64877;50.994;13.650;2024-01-30T01:23:44;19.65;;;9.27;;
76131;SDS011;64877;50.994;13.650;2024-01-30T01:26:10;15.85;;;9.02;;
76131;SDS011;64877;50.994;13.650;2024-01-30T01:28:35;20.05;;;8.70;;
76131;SDS011;64877;50.994;13.650;2024-01-30T01:31:01;20.10;;;8.43;;
76131;SDS011;64877;50.994;13.650;2024-01-30T01:33:31;16.08;;;9.43;;
76131;SDS011;64877;50.994;13.650;2024-01-30T01:36:00;19.27;;;9.43;;
76131;SDS011;64877;50.994;13.650;2024-01-30T01:38:28;17.83;;;8.27;;
76131;SDS011;64877;50.994;13.650;2024-01-30T01:40:54;17.17;;;8.80;;
76131;SDS011;64877;50.994;13.650;2024-01-30T01:43:20;17.13;;;9.15;;
76131;SDS011;64877;50.994;13.650;2024-01-30T01:45:45;22.58;;;10.50;;
76131;SDS011;64877;50.994;13.650;2024-01-30T01:48:11;16.33;;;9.10;;
76131;SDS011;64877;50.994;13.650;2024-01-30T01:50:38;19.40;;;9.63;;
76131;SDS011;64877;50.994;13.650;2024-01-30T01:53:05;16.67;;;8.98;;
76131;SDS011;64877;50.994;13.650;2024-01-30T01:55:32;20.67;;;8.73;;
76131;SDS011;64877;50.994;13.650;2024-01-30T01:57:59;18.85;;;8.02;;
76131;SDS011;64877;50.994;13.650;2024-01-30T02:00:24;19.75;;;9.15;;
76131;SDS011;64877;50.994;13.650;2024-01-30T02:02:50;16.40;;;9.27;;
76131;SDS011;64877;50.994;13.650;2024-01-30T02:05:17;17.77;;;8.77;;
76131;SDS011;64877;50.994;13.650;2024-01-30T02:07:43;20.15;;;8.85;;
76131;SDS011;64877;50.994;13.650;2024-01-30T02:10:09;18.50;;;9.05;;
76131;SDS011;64877;50.994;13.650;2024-01-30T02:12:37;19.35;;;9.18;;
76131;SDS011;64877;50.994;13.650;2024-01-30T02:15:03;13.43;;;7.85;;
76131;SDS011;64877;50.994;13.650;2024-01-30T02:17:30;20.27;;;8.25;;
76131;SDS011;64877;50.994;13.650;2024-01-30T02:19:56;19.00;;;8.88;;
76131;SDS011;64877;50.994;13.650;2024-01-30T02:22:22;19.48;;;8.82;;
76131;SDS011;64877;50.994;13.650;2024-01-30T02:24:47;16.30;;;8.25;;
76131;SDS011;64877;50.994;13.650;2024-01-30T02:27:13;20.48;;;8.90;;
76131;SDS011;64877;50.994;13.650;2024-01-30T02:29:38;15.80;;;7.88;;
76131;SDS011;64877;50.994;13.650;2024-01-30T02:32:04;16.80;;;9.00;;
76131;SDS011;64877;50.994;13.650;2024-01-30T02:34:30;20.63;;;9.82;;
76131;SDS011;64877;50.994;13.650;2024-01-30T02:36:56;16.73;;;8.13;;
76131;SDS011;64877;50.994;13.650;2024-01-30T02:39:21;19.67;;;8.90;;
76131;SDS011;64877;50.994;13.650;2024-01-30T02:41:46;20.05;;;8.65;;
76131;SDS011;64877;50.994;13.650;2024-01-30T02:44:12;16.02;;;8.18;;
76131;SDS011;64877;50.994;13.650;2024-01-30T02:46:37;17.85;;;9.35;;
76131;SDS011;64877;50.994;13.650;2024-01-30T02:49:03;18.35;;;9.77;;
76131;SDS011;64877;50.994;13.650;2024-01-30T02:51:28;17.38;;;8.48;;
76131;SDS011;64877;50.994;13.650;2024-01-30T02:53:53;18.67;;;8.27;;
76131;SDS011;64877;50.994;13.650;2024-01-30T02:56:19;18.35;;;8.32;;
76131;SDS011;64877;50.994;13.650;2024-01-30T02:58:44;17.80;;;8.68;;
76131;SDS011;64877;50.994;13.650;2024-01-30T03:01:09;17.60;;;8.07;;
76131;SDS011;64877;50.994;13.650;2024-01-30T03:03:35;14.73;;;8.52;;
76131;SDS011;64877;50.994;13.650;2024-01-30T03:06:01;14.57;;;7.88;;
76131;SDS011;64877;50.994;13.650;2024-01-30T03:08:27;16.58;;;8.18;;
76131;SDS011;64877;50.994;13.650;2024-01-30T03:10:52;16.08;;;8.57;;
76131;SDS011;64877;50.994;13.650;2024-01-30T03:13:17;24.23;;;9.65;;
76131;SDS011;64877;50.994;13.650;2024-01-30T03:15:43;14.02;;;8.80;;
76131;SDS011;64877;50.994;13.650;2024-01-30T03:18:08;16.80;;;9.00;;
76131;SDS011;64877;50.994;13.650;2024-01-30T03:20:34;19.83;;;8.73;;
76131;SDS011;64877;50.994;13.650;2024-01-30T03:22:59;20.95;;;9.30;;
76131;SDS011;64877;50.994;13.650;2024-01-30T03:25:25;18.33;;;9.00;;
76131;SDS011;64877;50.994;13.650;2024-01-30T03:27:51;17.70;;;8.98;;
76131;SDS011;64877;50.994;13.650;2024-01-30T03:30:16;17.08;;;8.93;;
76131;SDS011;64877;50.994;13.650;2024-01-30T03:32:42;18.65;;;8.75;;
76131;SDS011;64877;50.994;13.650;2024-01-30T03:35:08;18.33;;;8.48;;
76131;SDS011;64877;50.994;13.650;2024-01-30T03:37:34;20.45;;;9.30;;
76131;SDS011;64877;50.994;13.650;2024-01-30T03:39:59;19.35;;;9.90;;
76131;SDS011;64877;50.994;13.650;2024-01-30T03:42:24;16.75;;;9.30;;
76131;SDS011;64877;50.994;13.650;2024-01-30T03:44:50;20.90;;;9.55;;
76131;SDS011;64877;50.994;13.650;2024-01-30T03:47:20;22.33;;;10.43;;
76131;SDS011;64877;50.994;13.650;2024-01-30T03:49:46;19.25;;;9.40;;
76131;SDS011;64877;50.994;13.650;2024-01-30T03:52:11;17.02;;;9.40;;
76131;SDS011;64877;50.994;13.650;2024-01-30T03:54:37;17.92;;;8.70;;
76131;SDS011;64877;50.994;13.650;2024-01-30T03:57:02;19.88;;;8.98;;
76131;SDS011;64877;50.994;13.650;2024-01-30T03:59:28;17.13;;;8.93;;
76131;SDS011;64877;50.994;13.650;2024-01-30T04:01:54;15.57;;;8.85;;
76131;SDS011;64877;50.994;13.650;2024-01-30T04:04:19;19.17;;;8.57;;
76131;SDS011;64877;50.994;13.650;2024-01-30T04:06:45;18.27;;;9.65;;
76131;SDS011;64877;50.994;13.650;2024-01-30T04:09:11;17.98;;;9.00;;
76131;SDS011;64877;50.994;13.650;2024-01-30T04:11:38;24.60;;;9.77;;
76131;SDS011;64877;50.994;13.650;2024-01-30T04:14:04;18.08;;;9.40;;
76131;SDS011;64877;50.994;13.650;2024-01-30T04:16:29;20.15;;;9.98;;
76131;SDS011;64877;50.994;13.650;2024-01-30T04:18:55;23.50;;;10.88;;
76131;SDS011;64877;50.994;13.650;2024-01-30T04:21:21;21.38;;;8.57;;
76131;SDS011;64877;50.994;13.650;2024-01-30T04:23:47;17.40;;;8.90;;
76131;SDS011;64877;50.994;13.650;2024-01-30T04:26:13;16.27;;;8.85;;
76131;SDS011;64877;50.994;13.650;2024-01-30T04:28:40;17.45;;;8.23;;
76131;SDS011;64877;50.994;13.650;2024-01-30T04:31:06;16.75;;;9.27;;
76131;SDS011;64877;50.994;13.650;2024-01-30T04:33:32;15.90;;;9.07;;
76131;SDS011;64877;50.994;13.650;2024-01-30T04:35:57;16.40;;;7.90;;
76131;SDS011;64877;50.994;13.650;2024-01-30T04:38:22;16.20;;;8.95;;
76131;SDS011;64877;50.994;13.650;2024-01-30T04:40:48;17.80;;;9.77;;
76131;SDS011;64877;50.994;13.650;2024-01-30T04:43:13;16.98;;;8.55;;
76131;SDS011;64877;50.994;13.650;2024-01-30T04:45:39;18.00;;;8.77;;
76131;SDS011;64877;50.994;13.650;2024-01-30T04:48:05;18.38;;;8.70;;
76131;SDS011;64877;50.994;13.650;2024-01-30T04:50:31;18.77;;;9.75;;
76131;SDS011;64877;50.994;13.650;2024-01-30T04:52:56;20.25;;;8.93;;
76131;SDS011;64877;50.994;13.650;2024-01-30T04:55:21;18.60;;;8.52;;
76131;SDS011;64877;50.994;13.650;2024-01-30T04:57:47;19.30;;;9.18;;
76131;SDS011;64877;50.994;13.650;2024-01-30T05:00:12;15.95;;;8.73;;
76131;SDS011;64877;50.994;13.650;2024-01-30T05:02:38;18.00;;;9.60;;
76131;SDS011;64877;50.994;13.650;2024-01-30T05:05:04;17.63;;;9.90;;
76131;SDS011;64877;50.994;13.650;2024-01-30T05:07:29;18.98;;;9.73;;
76131;SDS011;64877;50.994;13.650;2024-01-30T05:09:55;24.83;;;10.20;;
76131;SDS011;64877;50.994;13.650;2024-01-30T05:12:20;18.75;;;9.05;;
76131;SDS011;64877;50.994;13.650;2024-01-30T05:14:45;21.42;;;8.43;;
76131;SDS011;64877;50.994;13.650;2024-01-30T05:17:11;18.08;;;10.48;;
76131;SDS011;64877;50.994;13.650;2024-01-30T05:19:38;19.92;;;8.55;;
76131;SDS011;64877;50.994;13.650;2024-01-30T05:22:03;18.15;;;9.88;;
76131;SDS011;64877;50.994;13.650;2024-01-30T05:24:29;20.10;;;10.35;;
76131;SDS011;64877;50.994;13.650;2024-01-30T05:26:54;19.05;;;10.18;;
76131;SDS011;64877;50.994;13.650;2024-01-30T05:29:20;16.95;;;8.80;;
76131;SDS011;64877;50.994;13.650;2024-01-30T05:31:45;19.33;;;9.30;;
76131;SDS011;64877;50.994;13.650;2024-01-30T05:34:10;19.13;;;9.15;;
76131;SDS011;64877;50.994;13.650;2024-01-30T05:36:36;17.38;;;8.50;;
76131;SDS011;64877;50.994;13.650;2024-01-30T05:39:01;19.70;;;9.60;;
76131;SDS011;64877;50.994;13.650;2024-01-30T05:41:27;18.58;;;9.23;;
76131;SDS011;64877;50.994;13.650;2024-01-30T05:43:53;18.70;;;9.35;;
76131;SDS011;64877;50.994;13.650;2024-01-30T05:46:18;20.85;;;10.10;;
76131;SDS011;64877;50.994;13.650;2024-01-30T05:48:43;21.58;;;10.02;;
76131;SDS011;64877;50.994;13.650;2024-01-30T05:51:09;23.02;;;11.25;;
76131;SDS011;64877;50.994;13.650;2024-01-30T05:53:34;18.08;;;10.15;;
76131;SDS011;64877;50.994;13.650;2024-01-30T05:56:03;20.95;;;10.13;;
76131;SDS011;64877;50.994;13.650;2024-01-30T05:58:29;19.85;;;9.45;;
76131;SDS011;64877;50.994;13.650;2024-01-30T06:00:56;18.25;;;9.32;;
76131;SDS011;64877;50.994;13.650;2024-01-30T06:03:22;20.00;;;9.57;;
76131;SDS011;64877;50.994;13.650;2024-01-30T06:05:47;20.15;;;11.02;;
76131;SDS011;64877;50.994;13.650;2024-01-30T06:08:13;20.92;;;10.30;;
76131;SDS011;64877;50.994;13.650;2024-01-30T06:10:38;18.98;;;9.70;;
76131;SDS011;64877;50.994;13.650;2024-01-30T06:13:04;21.75;;;9.35;;
76131;SDS011;64877;50.994;13.650;2024-01-30T06:15:29;23.33;;;9.30;;
76131;SDS011;64877;50.994;13.650;2024-01-30T06:17:55;23.52;;;11.07;;
76131;SDS011;64877;50.994;13.650;2024-01-30T06:20:20;18.50;;;9.95;;
76131;SDS011;64877;50.994;13.650;2024-01-30T06:22:46;18.42;;;10.38;;
76131;SDS011;64877;50.994;13.650;2024-01-30T06:25:11;17.48;;;9.25;;
76131;SDS011;64877;50.994;13.650;2024-01-30T06:27:37;18.73;;;10.32;;
76131;SDS011;64877;50.994;13.650;2024-01-30T06:30:03;21.65;;;12.25;;
76131;SDS011;64877;50.994;13.650;2024-01-30T06:32:29;19.10;;;9.57;;
76131;SDS011;64877;50.994;13.650;2024-01-30T06:34:59;16.55;;;8.90;;
76131;SDS011;64877;50.994;13.650;2024-01-30T06:39:52;17.75;;;9.00;;
76131;SDS011;64877;50.994;13.650;2024-01-30T06:42:18;17.08;;;10.45;;
76131;SDS011;64877;50.994;13.650;2024-01-30T06:44:44;22.30;;;10.93;;
76131;SDS011;64877;50.994;13.650;2024-01-30T06:47:10;18.88;;;10.73;;
76131;SDS011;64877;50.994;13.650;2024-01-30T06:49:35;20.65;;;9.70;;
76131;SDS011;64877;50.994;13.650;2024-01-30T06:52:04;18.08;;;9.80;;
76131;SDS011;64877;50.994;13.650;2024-01-30T06:54:30;22.52;;;9.73;;
76131;SDS011;64877;50.994;13.650;2024-01-30T06:56:56;18.10;;;8.98;;
76131;SDS011;64877;50.994;13.650;2024-01-30T06:59:21;24.30;;;11.10;;
76131;SDS011;64877;50.994;13.650;2024-01-30T07:01:47;19.08;;;10.32;;
76131;SDS011;64877;50.994;13.650;2024-01-30T07:04:13;23.17;;;9.93;;
76131;SDS011;64877;50.994;13.650;2024-01-30T07:06:38;20.50;;;10.45;;
76131;SDS011;64877;50.994;13.650;2024-01-30T07:09:04;25.95;;;12.52;;
76131;SDS011;64877;50.994;13.650;2024-01-30T07:11:30;22.60;;;11.35;;
76131;SDS011;64877;50.994;13.650;2024-01-30T07:13:56;25.35;;;11.73;;
76131;SDS011;64877;50.994;13.650;2024-01-30T07:16:21;19.35;;;10.30;;
76131;SDS011;64877;50.994;13.650;2024-01-30T07:18:47;19.65;;;10.18;;
76131;SDS011;64877;50.994;13.650;2024-01-30T07:21:13;19.52;;;9.90;;
76131;SDS011;64877;50.994;13.650;2024-01-30T07:23:38;18.13;;;9.75;;
76131;SDS011;64877;50.994;13.650;2024-01-30T07:26:06;19.35;;;9.85;;
76131;SDS011;64877;50.994;13.650;2024-01-30T07:28:32;18.33;;;9.25;;
76131;SDS011;64877;50.994;13.650;2024-01-30T07:30:58;16.85;;;8.57;;
76131;SDS011;64877;50.994;13.650;2024-01-30T07:33:23;22.70;;;10.68;;
76131;SDS011;64877;50.994;13.650;2024-01-30T07:35:49;19.38;;;10.52;;
76131;SDS011;64877;50.994;13.650;2024-01-30T07:38:14;20.25;;;9.57;;
76131;SDS011;64877;50.994;13.650;2024-01-30T07:40:40;17.83;;;10.13;;
76131;SDS011;64877;50.994;13.650;2024-01-30T07:43:06;19.40;;;9.88;;
76131;SDS011;64877;50.994;13.650;2024-01-30T07:45:31;20.13;;;9.70;;
76131;SDS011;64877;50.994;13.650;2024-01-30T07:47:58;21.60;;;10.00;;
76131;SDS011;64877;50.994;13.650;2024-01-30T07:50:25;18.00;;;9.27;;
76131;SDS011;64877;50.994;13.650;2024-01-30T07:52:50;20.27;;;10.63;;
76131;SDS011;64877;50.994;13.650;2024-01-30T07:55:20;22.73;;;11.70;;
76131;SDS011;64877;50.994;13.650;2024-01-30T07:57:49;19.05;;;10.18;;
76131;SDS011;64877;50.994;13.650;2024-01-30T08:00:18;20.92;;;10.38;;
76131;SDS011;64877;50.994;13.650;2024-01-30T08:02:45;19.60;;;10.85;;
76131;SDS011;64877;50.994;13.650;2024-01-30T08:05:10;21.25;;;10.98;;
76131;SDS011;64877;50.994;13.650;2024-01-30T08:07:36;21.83;;;12.30;;
76131;SDS011;64877;50.994;13.650;2024-01-30T08:10:02;18.85;;;10.23;;
76131;SDS011;64877;50.994;13.650;2024-01-30T08:12:28;21.65;;;11.82;;
76131;SDS011;64877;50.994;13.650;2024-01-30T08:14:53;19.95;;;11.35;;
76131;SDS011;64877;50.994;13.650;2024-01-30T08:17:18;22.10;;;11.27;;
76131;SDS011;64877;50.994;13.650;2024-01-30T08:19:44;20.45;;;10.55;;
76131;SDS011;64877;50.994;13.650;2024-01-30T08:22:09;16.17;;;10.35;;
76131;SDS011;64877;50.994;13.650;2024-01-30T08:24:35;22.63;;;10.55;;
76131;SDS011;64877;50.994;13.650;2024-01-30T08:27:00;21.40;;;11.38;;
76131;SDS011;64877;50.994;13.650;2024-01-30T08:29:27;24.77;;;11.95;;
76131;SDS011;64877;50.994;13.650;2024-01-30T08:31:53;24.15;;;11.10;;
76131;SDS011;64877;50.994;13.650;2024-01-30T08:34:20;22.23;;;12.65;;
76131;SDS011;64877;50.994;13.650;2024-01-30T08:36:46;24.98;;;12.63;;
76131;SDS011;64877;50.994;13.650;2024-01-30T08:39:11;20.45;;;11.27;;
76131;SDS011;64877;50.994;13.650;2024-01-30T08:41:37;23.42;;;11.63;;
76131;SDS011;64877;50.994;13.650;2024-01-30T08:44:02;22.70;;;11.48;;
76131;SDS011;64877;50.994;13.650;2024-01-30T08:46:29;23.98;;;11.40;;
76131;SDS011;64877;50.994;13.650;2024-01-30T08:48:55;21.50;;;11.30;;
76131;SDS011;64877;50.994;13.650;2024-01-30T08:51:21;22.00;;;11.23;;
76131;SDS011;64877;50.994;13.650;2024-01-30T08:53:47;21.27;;;10.85;;
76131;SDS011;64877;50.994;13.650;2024-01-30T08:56:12;20.63;;;11.23;;
76131;SDS011;64877;50.994;13.650;2024-01-30T08:58:38;23.45;;;12.15;;
76131;SDS011;64877;50.994;13.650;2024-01-30T09:01:04;22.42;;;13.25;;
76131;SDS011;64877;50.994;13.650;2024-01-30T09:03:30;28.50;;;14.05;;
76131;SDS011;64877;50.994;13.650;2024-01-30T09:05:56;26.75;;;12.55;;
76131;SDS011;64877;50.994;13.650;2024-01-30T09:08:21;23.98;;;11.65;;
76131;SDS011;64877;50.994;13.650;2024-01-30T09:10:47;23.05;;;12.25;;
76131;SDS011;64877;50.994;13.650;2024-01-30T09:13:13;23.05;;;12.02;;
76131;SDS011;64877;50.994;13.650;2024-01-30T09:15:38;19.02;;;11.73;;
76131;SDS011;64877;50.994;13.650;2024-01-30T09:18:04;20.60;;;11.15;;
76131;SDS011;64877;50.994;13.650;2024-01-30T09:20:29;18.45;;;9.93;;
76131;SDS011;64877;50.994;13.650;2024-01-30T09:22:55;24.65;;;12.02;;
76131;SDS011;64877;50.994;13.650;2024-01-30T09:25:20;19.85;;;9.55;;
76131;SDS011;64877;50.994;13.650;2024-01-30T09:27:46;19.83;;;10.38;;
76131;SDS011;64877;50.994;13.650;2024-01-30T09:30:12;24.60;;;10.85;;
76131;SDS011;64877;50.994;13.650;2024-01-30T09:32:39;20.85;;;9.40;;
76131;SDS011;64877;50.994;13.650;2024-01-30T09:35:05;17.92;;;10.40;;
76131;SDS011;64877;50.994;13.650;2024-01-30T09:37:31;16.40;;;9.80;;
76131;SDS011;64877;50.994;13.650;2024-01-30T09:39:56;17.23;;;9.77;;
76131;SDS011;64877;50.994;13.650;2024-01-30T09:42:32;18.63;;;9.02;;
76131;SDS011;64877;50.994;13.650;2024-01-30T09:45:00;16.75;;;9.65;;
76131;SDS011;64877;50.994;13.650;2024-01-30T09:47:27;22.70;;;10.85;;
76131;SDS011;64877;50.994;13.650;2024-01-30T09:49:52;17.33;;;8.75;;
76131;SDS011;64877;50.994;13.650;2024-01-30T09:52:18;20.60;;;9.98;;
76131;SDS011;64877;50.994;13.650;2024-01-30T09:54:43;13.82;;;8.02;;
76131;SDS011;64877;50.994;13.650;2024-01-30T09:57:11;17.23;;;9.60;;
76131;SDS011;64877;50.994;13.650;2024-01-30T09:59:36;17.10;;;10.02;;
76131;SDS011;64877;50.994;13.650;2024-01-30T10:02:02;20.23;;;11.02;;
76131;SDS011;64877;50.994;13.650;2024-01-30T10:04:29;16.00;;;9.02;;
76131;SDS011;64877;50.994;13.650;2024-01-30T10:06:55;17.33;;;8.57;;
76131;SDS011;64877;50.994;13.650;2024-01-30T10:09:22;15.73;;;8.73;;
76131;SDS011;64877;50.994;13.650;2024-01-30T10:11:48;15.82;;;8.65;;
76131;SDS011;64877;50.994;13.650;2024-01-30T10:14:13;13.57;;;7.93;;
76131;SDS011;64877;50.994;13.650;2024-01-30T10:16:39;15.82;;;7.72;;
76131;SDS011;64877;50.994;13.650;2024-01-30T10:19:04;13.82;;;7.97;;
76131;SDS011;64877;50.994;13.650;2024-01-30T10:21:30;13.73;;;8.07;;
76131;SDS011;64877;50.994;13.650;2024-01-30T10:23:56;15.95;;;7.95;;
76131;SDS011;64877;50.994;13.650;2024-01-30T10:26:21;13.77;;;7.57;;
76131;SDS011;64877;50.994;13.650;2024-01-30T10:28:47;16.92;;;7.55;;
76131;SDS011;64877;50.994;13.650;2024-01-30T10:31:17;13.05;;;8.43;;
76131;SDS011;64877;50.994;13.650;2024-01-30T10:33:44;11.68;;;7.65;;
76131;SDS011;64877;50.994;13.650;2024-01-30T10:36:10;11.50;;;6.85;;
76131;SDS011;64877;50.994;13.650;2024-01-30T10:38:39;11.32;;;6.43;;
76131;SDS011;64877;50.994;13.650;2024-01-30T10:41:08;14.55;;;7.93;;
76131;SDS011;64877;50.994;13.650;2024-01-30T10:43:40;13.02;;;6.90;;
76131;SDS011;64877;50.994;13.650;2024-01-30T10:46:19;10.05;;;6.55;;
76131;SDS011;64877;50.994;13.650;2024-01-30T10:48:46;12.07;;;6.10;;
76131;SDS011;64877;50.994;13.650;2024-01-30T10:51:16;8.93;;;5.65;;
76131;SDS011;64877;50.994;13.650;2024-01-30T10:53:43;12.00;;;6.82;;
76131;SDS011;64877;50.994;13.650;2024-01-30T10:56:11;10.63;;;7.15;;
76131;SDS011;64877;50.994;13.650;2024-01-30T10:58:38;14.88;;;5.65;;
76131;SDS011;64877;50.994;13.650;2024-01-30T11:01:04;13.50;;;6.63;;
76131;SDS011;64877;50.994;13.650;2024-01-30T11:03:31;11.52;;;5.75;;
76131;SDS011;64877;50.994;13.650;2024-01-30T11:05:59;13.27;;;6.75;;
76131;SDS011;64877;50.994;13.650;2024-01-30T11:08:26;10.10;;;6.18;;
76131;SDS011;64877;50.994;13.650;2024-01-30T11:10:56;11.80;;;6.63;;
76131;SDS011;64877;50.994;13.650;2024-01-30T11:13:26;15.18;;;7.05;;
76131;SDS011;64877;50.994;13.650;2024-01-30T11:15:52;10.82;;;6.07;;
76131;SDS011;64877;50.994;13.650;2024-01-30T11:18:25;10.35;;;6.13;;
76131;SDS011;64877;50.994;13.650;2024-01-30T11:20:51;10.60;;;6.68;;
76131;SDS011;64877;50.994;13.650;2024-01-30T11:23:16;16.80;;;9.43;;
76131;SDS011;64877;50.994;13.650;2024-01-30T11:25:43;14.82;;;9.35;;
76131;SDS011;64877;50.994;13.650;2024-01-30T11:28:13;13.85;;;8.25;;
76131;SDS011;64877;50.994;13.650;2024-01-30T11:30:41;16.05;;;9.30;;
76131;SDS011;64877;50.994;13.650;2024-01-30T11:33:08;16.83;;;10.15;;
76131;SDS011;64877;50.994;13.650;2024-01-30T11:38:07;14.05;;;7.53;;
76131;SDS011;64877;50.994;13.650;2024-01-30T11:40:34;13.05;;;8.10;;
76131;SDS011;64877;50.994;13.650;2024-01-30T11:43:01;17.55;;;8.02;;
76131;SDS011;64877;50.994;13.650;2024-01-30T11:45:28;15.55;;;8.82;;
76131;SDS011;64877;50.994;13.650;2024-01-30T11:47:54;14.25;;;7.28;;
76131;SDS011;64877;50.994;13.650;2024-01-30T11:50:20;15.50;;;8.50;;
76131;SDS011;64877;50.994;13.650;2024-01-30T11:52:46;14.98;;;8.15;;
76131;SDS011;64877;50.994;13.650;2024-01-30T11:55:13;13.88;;;8.10;;
76131;SDS011;64877;50.994;13.650;2024-01-30T11:57:39;17.77;;;10.93;;
76131;SDS011;64877;50.994;13.650;2024-01-30T12:00:05;17.55;;;10.60;;
76131;SDS011;64877;50.994;13.650;2024-01-30T12:02:38;15.20;;;8.60;;
76131;SDS011;64877;50.994;13.650;2024-01-30T12:05:08;13.25;;;7.97;;
76131;SDS011;64877;50.994;13.650;2024-01-30T12:07:34;16.13;;;10.27;;
76131;SDS011;64877;50.994;13.650;2024-01-30T12:10:00;18.67;;;11.15;;
76131;SDS011;64877;50.994;13.650;2024-01-30T12:12:26;17.85;;;10.27;;
76131;SDS011;64877;50.994;13.650;2024-01-30T12:14:53;16.50;;;9.45;;
76131;SDS011;64877;50.994;13.650;2024-01-30T12:17:31;15.57;;;8.27;;
76131;SDS011;64877;50.994;13.650;2024-01-30T12:22:33;15.88;;;8.93;;
76131;SDS011;64877;50.994;13.650;2024-01-30T12:25:02;16.45;;;8.80;;
76131;SDS011;64877;50.994;13.650;2024-01-30T12:27:29;15.90;;;8.88;;
76131;SDS011;64877;50.994;13.650;2024-01-30T12:29:57;13.98;;;7.72;;
76131;SDS011;64877;50.994;13.650;2024-01-30T12:32:23;15.10;;;8.63;;
76131;SDS011;64877;50.994;13.650;2024-01-30T12:34:49;14.20;;;7.25;;
76131;SDS011;64877;50.994;13.650;2024-01-30T12:37:14;14.30;;;7.65;;
76131;SDS011;64877;50.994;13.650;2024-01-30T12:39:44;13.90;;;7.28;;
76131;SDS011;64877;50.994;13.650;2024-01-30T12:42:10;16.67;;;9.77;;
76131;SDS011;64877;50.994;13.650;2024-01-30T12:44:36;17.00;;;8.77;;
76131;SDS011;64877;50.994;13.650;2024-01-30T12:47:04;15.02;;;7.50;;
76131;SDS011;64877;50.994;13.650;2024-01-30T12:49:30;17.05;;;8.07;;
76131;SDS011;64877;50.994;13.650;2024-01-30T12:51:55;17.77;;;8.40;;
76131;SDS011;64877;50.994;13.650;2024-01-30T12:54:22;17.55;;;9.45;;
76131;SDS011;64877;50.994;13.650;2024-01-30T12:56:48;17.15;;;8.85;;
76131;SDS011;64877;50.994;13.650;2024-01-30T12:59:13;18.20;;;9.90;;
76131;SDS011;64877;50.994;13.650;2024-01-30T13:01:39;16.95;;;9.10;;
76131;SDS011;64877;50.994;13.650;2024-01-30T13:04:04;20.27;;;8.90;;
76131;SDS011;64877;50.994;13.650;2024-01-30T13:06:30;17.83;;;9.48;;
76131;SDS011;64877;50.994;13.650;2024-01-30T13:08:55;14.52;;;8.38;;
76131;SDS011;64877;50.994;13.650;2024-01-30T13:11:21;16.10;;;8.30;;
76131;SDS011;64877;50.994;13.650;2024-01-30T13:13:46;20.17;;;9.77;;
76131;SDS011;64877;50.994;13.650;2024-01-30T13:16:12;18.02;;;8.98;;
76131;SDS011;64877;50.994;13.650;2024-01-30T13:18:37;20.67;;;10.10;;
76131;SDS011;64877;50.994;13.650;2024-01-30T13:21:03;18.77;;;8.70;;
76131;SDS011;64877;50.994;13.650;2024-01-30T13:23:28;21.05;;;10.63;;
76131;SDS011;64877;50.994;13.650;2024-01-30T13:25:54;17.52;;;9.15;;
76131;SDS011;64877;50.994;13.650;2024-01-30T13:28:22;19.55;;;9.60;;
76131;SDS011;64877;50.994;13.650;2024-01-30T13:30:48;17.13;;;8.95;;
76131;SDS011;64877;50.994;13.650;2024-01-30T13:33:13;16.23;;;8.98;;
76131;SDS011;64877;50.994;13.650;2024-01-30T13:35:39;16.73;;;8.40;;
76131;SDS011;64877;50.994;13.650;2024-01-30T13:38:04;18.85;;;9.30;;
76131;SDS011;64877;50.994;13.650;2024-01-30T13:40:29;18.95;;;10.00;;
76131;SDS011;64877;50.994;13.650;2024-01-30T13:42:55;15.25;;;8.63;;
76131;SDS011;64877;50.994;13.650;2024-01-30T13:45:20;19.55;;;8.85;;
76131;SDS011;64877;50.994;13.650;2024-01-30T13:47:45;17.20;;;8.95;;
76131;SDS011;64877;50.994;13.650;2024-01-30T13:50:11;19.38;;;9.55;;
76131;SDS011;64877;50.994;13.650;2024-01-30T13:52:40;19.30;;;9.75;;
76131;SDS011;64877;50.994;13.650;2024-01-30T13:55:06;18.75;;;10.20;;
76131;SDS011;64877;50.994;13.650;2024-01-30T13:57:31;18.40;;;8.68;;
76131;SDS011;64877;50.994;13.650;2024-01-30T14:00:00;23.15;;;10.52;;
76131;SDS011;64877;50.994;13.650;2024-01-30T14:02:26;18.38;;;9.93;;
76131;SDS011;64877;50.994;13.650;2024-01-30T14:04:51;20.60;;;9.38;;
76131;SDS011;64877;50.994;13.650;2024-01-30T14:07:17;17.83;;;9.30;;
76131;SDS011;64877;50.994;13.650;2024-01-30T14:09:43;19.95;;;10.00;;
76131;SDS011;64877;50.994;13.650;2024-01-30T14:12:09;20.42;;;9.55;;
76131;SDS011;64877;50.994;13.650;2024-01-30T14:14:35;26.90;;;10.60;;
76131;SDS011;64877;50.994;13.650;2024-01-30T14:17:00;20.58;;;10.45;;
76131;SDS011;64877;50.994;13.650;2024-01-30T14:19:26;18.23;;;9.05;;